createdAt,value
2022-12-19T00:00:14.871Z,-5.97
2022-12-19T00:05:10.557Z,-6.04
2022-12-19T00:10:09.947Z,-6.09
2022-12-19T00:15:10.251Z,-6.18
2022-12-19T00:20:10.869Z,-6.20
2022-12-19T00:25:09.989Z,-6.05
2022-12-19T00:30:11.009Z,-6.00
2022-12-19T00:35:10.202Z,-5.90
2022-12-19T00:40:10.804Z,-5.83
2022-12-19T00:45:10.034Z,-5.92
2022-12-19T00:50:10.253Z,-5.88
2022-12-19T00:55:16.491Z,-5.92
2022-12-19T01:00:10.893Z,-5.95
2022-12-19T01:05:10.566Z,-5.93
2022-12-19T01:10:10.096Z,-5.90
2022-12-19T01:15:09.954Z,-5.89
2022-12-19T01:20:10.738Z,-5.91
2022-12-19T01:25:10.691Z,-5.94
2022-12-19T01:30:10.982Z,-6.18
2022-12-19T01:35:15.974Z,-6.29
2022-12-19T01:40:14.085Z,-6.36
2022-12-19T01:45:31.838Z,-6.41
2022-12-19T01:50:14.560Z,-6.39
2022-12-19T01:55:10.883Z,-6.25
2022-12-19T02:00:11.826Z,-6.20
2022-12-19T02:05:10.146Z,-6.10
2022-12-19T02:10:10.454Z,-6.00
2022-12-19T02:15:13.816Z,-6.00
2022-12-19T02:20:29.688Z,-6.01
2022-12-19T02:25:29.657Z,-6.01
2022-12-19T02:30:13.158Z,-5.97
2022-12-19T02:35:19.341Z,-6.05
2022-12-19T02:40:14.178Z,-5.97
2022-12-19T02:45:28.523Z,-5.97
2022-12-19T02:50:10.573Z,-5.96
2022-12-19T02:55:15.665Z,-6.06
2022-12-19T03:00:13.607Z,-5.99
2022-12-19T03:05:21.612Z,-6.00
2022-12-19T03:10:20.534Z,-6.07
2022-12-19T03:15:11.396Z,-6.15
2022-12-19T03:20:20.494Z,-6.28
2022-12-19T03:25:10.273Z,-6.45
2022-12-19T03:30:14.119Z,-6.54
2022-12-19T03:35:14.836Z,-6.56
2022-12-19T03:40:14.454Z,-6.65
2022-12-19T03:45:12.654Z,-6.71
2022-12-19T03:50:10.234Z,-6.77
2022-12-19T03:55:15.693Z,-6.90
2022-12-19T04:00:14.686Z,-6.99
2022-12-19T04:05:14.453Z,-7.03
2022-12-19T04:10:13.705Z,-7.16
2022-12-19T04:15:10.961Z,-7.27
2022-12-19T04:20:12.347Z,-7.32
2022-12-19T04:25:12.957Z,-7.42
2022-12-19T04:30:14.661Z,-7.51
2022-12-19T04:35:10.098Z,-7.49
2022-12-19T04:40:11.480Z,-7.57
2022-12-19T04:45:10.464Z,-7.77
2022-12-19T04:50:09.987Z,-7.79
2022-12-19T04:55:10.192Z,-7.83
2022-12-19T05:00:10.836Z,-7.95
2022-12-19T05:05:09.672Z,-8.02
2022-12-19T05:10:09.846Z,-8.01
2022-12-19T05:15:11.129Z,-8.05
2022-12-19T05:20:10.381Z,-8.05
2022-12-19T05:25:09.801Z,-8.06
2022-12-19T05:30:10.787Z,-8.08
2022-12-19T05:35:09.630Z,-8.04
2022-12-19T05:40:10.389Z,-8.08
2022-12-19T05:45:10.243Z,-8.11
2022-12-19T05:50:09.772Z,-8.07
2022-12-19T05:55:09.907Z,-8.07
2022-12-19T06:00:11.315Z,-8.12
2022-12-19T06:05:09.674Z,-8.15
2022-12-19T06:10:09.690Z,-8.26
2022-12-19T06:15:10.403Z,-8.28
2022-12-19T06:20:10.271Z,-8.31
2022-12-19T06:25:09.694Z,-8.31
2022-12-19T06:30:10.779Z,-8.40
2022-12-19T06:35:09.774Z,-8.47
2022-12-19T06:40:20.094Z,-8.56
2022-12-19T06:45:10.154Z,-8.61
2022-12-19T06:50:09.755Z,-8.64
2022-12-19T06:55:09.564Z,-8.64
2022-12-19T07:00:10.805Z,-8.56
2022-12-19T07:05:10.456Z,-8.50
2022-12-19T07:10:10.303Z,-8.45
2022-12-19T07:15:11.217Z,-8.36
2022-12-19T07:20:11.655Z,-8.42
2022-12-19T07:25:09.933Z,-8.31
2022-12-19T07:30:10.983Z,-8.30
2022-12-19T07:35:09.612Z,-8.17
2022-12-19T07:40:13.289Z,-8.14
2022-12-19T07:45:11.159Z,-8.10
2022-12-19T07:50:09.645Z,-7.99
2022-12-19T07:55:10.071Z,-7.67
2022-12-19T08:00:11.053Z,-4.01
2022-12-19T08:05:10.454Z,1.84
2022-12-19T08:10:11.453Z,5.69
2022-12-19T08:15:10.943Z,0.96
2022-12-19T08:20:10.653Z,-1.76
2022-12-19T08:25:09.839Z,-3.44
2022-12-19T08:30:12.365Z,-4.49
2022-12-19T08:35:10.053Z,-5.25
2022-12-19T08:40:10.506Z,-5.66
2022-12-19T08:45:09.826Z,-5.77
2022-12-19T08:50:10.554Z,-5.81
2022-12-19T08:55:09.886Z,-5.83
2022-12-19T09:00:10.454Z,-5.68
2022-12-19T09:06:03.515Z,-5.56
2022-12-19T09:10:09.758Z,-5.35
2022-12-19T09:15:09.999Z,-2.49
2022-12-19T09:20:10.169Z,5.57
2022-12-19T09:25:10.111Z,8.54
2022-12-19T09:30:11.905Z,9.15
2022-12-19T09:35:09.428Z,9.78
2022-12-19T09:40:15.954Z,10.32
2022-12-19T09:45:31.608Z,10.95
2022-12-19T09:50:23.327Z,12.27
2022-12-19T09:55:17.199Z,14.30
2022-12-19T10:00:12.852Z,14.96
2022-12-19T10:05:34.944Z,16.91
2022-12-19T10:12:39.408Z,18.39
2022-12-19T10:15:17.218Z,20.31
2022-12-19T10:20:17.230Z,21.80
2022-12-19T10:25:22.445Z,20.90
2022-12-19T10:30:14.350Z,14.66
2022-12-19T10:35:13.926Z,8.54
2022-12-19T10:40:28.118Z,7.37
2022-12-19T10:45:13.627Z,11.80
2022-12-19T10:50:12.293Z,14.11
2022-12-19T10:55:21.832Z,11.75
2022-12-19T11:00:15.877Z,7.10
2022-12-19T11:05:22.478Z,5.13
2022-12-19T11:11:55.931Z,3.37
2022-12-19T11:18:34.383Z,2.19
2022-12-19T11:29:16.309Z,1.67
2022-12-19T11:29:32.146Z,1.25
2022-12-19T11:32:00.229Z,1.14
2022-12-19T11:35:17.863Z,0.89
2022-12-19T11:40:15.301Z,0.51
2022-12-19T11:45:16.951Z,0.19
2022-12-19T11:50:15.832Z,-0.18
2022-12-19T11:55:17.303Z,-0.70
2022-12-19T12:00:13.017Z,-1.21
2022-12-19T12:05:29.297Z,-1.67
2022-12-19T12:14:52.161Z,-1.96
2022-12-19T12:27:43.670Z,-2.00
2022-12-19T12:31:05.599Z,-2.26
2022-12-19T12:31:12.278Z,-2.41
2022-12-19T12:31:56.860Z,-2.68
2022-12-19T12:37:15.214Z,-2.69
2022-12-19T12:40:29.172Z,-2.81
2022-12-19T12:45:18.679Z,-3.02
2022-12-19T12:50:16.224Z,-3.06
2022-12-19T12:55:16.509Z,-3.14
2022-12-19T13:00:16.461Z,-3.24
2022-12-19T13:05:24.293Z,-3.25
2022-12-19T13:10:23.046Z,-3.34
2022-12-19T13:15:31.063Z,-3.51
2022-12-19T13:20:29.263Z,-3.85
2022-12-19T13:25:29.421Z,-3.96
2022-12-19T13:30:16.688Z,-4.19
2022-12-19T13:38:58.503Z,-4.36
2022-12-19T13:40:18.549Z,-4.53
2022-12-19T13:45:21.262Z,-4.75
2022-12-19T13:50:21.124Z,-4.95
2022-12-19T13:55:12.315Z,-5.11
2022-12-19T14:00:16.407Z,-5.23
2022-12-19T14:05:20.095Z,-5.38
2022-12-19T14:11:39.889Z,-5.46
2022-12-19T14:15:20.689Z,-5.57
2022-12-19T14:22:07.946Z,-5.69
2022-12-19T14:28:15.512Z,-5.73
2022-12-19T14:30:30.207Z,-5.82
2022-12-19T14:36:07.422Z,-5.89
2022-12-19T14:40:21.761Z,-5.90
2022-12-19T14:52:50.775Z,-5.97
2022-12-19T14:54:18.341Z,-5.92
2022-12-19T14:56:00.405Z,-5.93
2022-12-19T15:01:08.419Z,-5.94
2022-12-19T15:05:13.328Z,-5.96
2022-12-19T15:11:09.051Z,-6.01
2022-12-19T15:15:18.885Z,-6.11
2022-12-19T15:20:09.803Z,-6.13
2022-12-19T15:25:35.953Z,-6.16
2022-12-19T15:30:15.435Z,-6.11
2022-12-19T15:35:10.973Z,-6.11
2022-12-19T15:40:14.603Z,-6.12
2022-12-19T15:45:13.378Z,-6.11
2022-12-19T15:50:16.710Z,-6.11
2022-12-19T15:55:11.846Z,-6.11
2022-12-19T16:00:17.567Z,-6.08
2022-12-19T16:05:10.003Z,-6.07
2022-12-19T16:10:10.449Z,-6.05
2022-12-19T16:15:15.554Z,-5.98
2022-12-19T16:20:14.782Z,-5.90
2022-12-19T16:25:11.634Z,-5.88
2022-12-19T16:30:18.810Z,-5.86
2022-12-19T16:35:12.555Z,-5.86
2022-12-19T16:40:14.438Z,-5.89
2022-12-19T16:45:15.505Z,-5.91
2022-12-19T16:50:15.512Z,-5.90
2022-12-19T16:55:09.123Z,-5.92
2022-12-19T17:00:12.641Z,-5.92
2022-12-19T17:05:14.054Z,-5.91
2022-12-19T17:10:10.069Z,-5.85
2022-12-19T17:15:20.276Z,-5.90
2022-12-19T17:20:13.455Z,-5.87
2022-12-19T17:25:15.649Z,-5.76
2022-12-19T17:30:09.771Z,-5.73
2022-12-19T17:35:15.273Z,-5.67
2022-12-19T17:40:16.280Z,-5.63
2022-12-19T17:45:09.812Z,-5.54
2022-12-19T17:50:19.193Z,-5.46
2022-12-19T17:55:14.434Z,-5.40
2022-12-19T18:00:10.636Z,-5.37
2022-12-19T18:05:19.425Z,-5.33
2022-12-19T18:10:14.329Z,-5.34
2022-12-19T18:15:10.041Z,-5.35
2022-12-19T18:20:24.889Z,-5.29
2022-12-19T18:25:15.624Z,-5.25
2022-12-19T18:30:13.708Z,-5.28
2022-12-19T18:35:14.118Z,-5.27
2022-12-19T18:40:20.973Z,-5.19
2022-12-19T18:45:12.667Z,-5.16
2022-12-19T18:50:15.496Z,-5.13
2022-12-19T18:55:13.853Z,-5.17
2022-12-19T19:00:11.022Z,-5.14
2022-12-19T19:05:12.729Z,-5.18
2022-12-19T19:10:15.318Z,-5.15
2022-12-19T19:15:09.761Z,-5.09
2022-12-19T19:20:09.870Z,-5.01
2022-12-19T19:25:09.409Z,-4.93
2022-12-19T19:30:10.599Z,-4.87
2022-12-19T19:35:11.186Z,-4.74
2022-12-19T19:40:11.005Z,-4.70
2022-12-19T19:45:10.129Z,-4.66
2022-12-19T19:50:10.806Z,-4.66
2022-12-19T19:55:09.056Z,-4.62
2022-12-19T20:00:10.158Z,-4.61
2022-12-19T20:05:10.378Z,-4.59
2022-12-19T20:10:09.729Z,-4.56
2022-12-19T20:15:09.660Z,-4.54
2022-12-19T20:20:09.518Z,-4.45
2022-12-19T20:25:09.291Z,-4.36
2022-12-19T20:30:10.045Z,-4.24
2022-12-19T20:35:14.149Z,-4.20
2022-12-19T20:40:09.634Z,-4.11
2022-12-19T20:45:09.081Z,-4.07
2022-12-19T20:50:11.846Z,-3.97
2022-12-19T20:55:09.450Z,-3.87
2022-12-19T21:00:10.413Z,-3.73
2022-12-19T21:05:09.541Z,-3.63
2022-12-19T21:10:09.351Z,-3.57
2022-12-19T21:15:09.687Z,-3.51
2022-12-19T21:20:09.561Z,-3.43
2022-12-19T21:25:08.940Z,-3.37
2022-12-19T21:30:09.669Z,-3.27
2022-12-19T21:35:09.489Z,-3.21
2022-12-19T21:40:09.363Z,-3.10
2022-12-19T21:45:10.067Z,-2.99
2022-12-19T21:50:11.173Z,-2.92
2022-12-19T21:55:09.128Z,-2.84
2022-12-19T22:00:11.993Z,-2.82
2022-12-19T22:05:09.058Z,-2.76
2022-12-19T22:10:09.457Z,-2.72
2022-12-19T22:15:09.012Z,-2.71
2022-12-19T22:20:09.315Z,-2.68
2022-12-19T22:25:09.135Z,-2.66
2022-12-19T22:30:11.334Z,-2.64
2022-12-19T22:35:08.830Z,-2.60
2022-12-19T22:40:10.023Z,-2.61
2022-12-19T22:45:10.056Z,-2.54
2022-12-19T22:50:09.511Z,-2.45
2022-12-19T22:55:09.053Z,-2.39
2022-12-19T23:00:12.594Z,-2.30
2022-12-19T23:05:08.830Z,-2.19
2022-12-19T23:10:09.169Z,-2.19
2022-12-19T23:15:09.927Z,-2.11
2022-12-19T23:20:09.556Z,-2.03
2022-12-19T23:25:09.883Z,-2.01
2022-12-19T23:30:10.364Z,-1.96
2022-12-19T23:35:09.217Z,-1.87
2022-12-19T23:40:09.562Z,-1.88
2022-12-19T23:45:09.385Z,-1.83
2022-12-19T23:50:09.225Z,-1.76
2022-12-19T23:55:09.995Z,-1.75
